Time;durP1;ratioP1;P1;durP2;ratioP2;P2;SDS_P1;SDS_P2;PMS_P1;PMS_P2;Temp;Humidity;BMP_temperature;BMP_pressure;BME280_temperature;BME280_humidity;BME280_pressure;Samples;Min_cycle;Max_cycle;Signal;HPM_P1;HPM_P2
2022/12/06 00:01:18;;;;;;;14.85;10.88;;;3.70;99.90;;;;;;5004544;28;20190;-71
2022/12/06 00:03:45;;;;;;;12.93;9.75;;;3.60;99.90;;;;;;5009328;28;20271;-71
2022/12/06 00:06:14;;;;;;;12.45;10.40;;;3.60;99.90;;;;;;5007058;28;20182;-71
2022/12/06 00:08:40;;;;;;;12.20;10.45;;;3.50;99.90;;;;;;5002903;28;20220;-71
2022/12/06 00:11:07;;;;;;;13.32;11.32;;;3.50;99.90;;;;;;5008396;28;20170;-71
2022/12/06 00:13:34;;;;;;;11.07;9.73;;;3.50;99.90;;;;;;5000574;28;20217;-71
2022/12/06 00:16:04;;;;;;;13.95;10.05;;;3.50;99.90;;;;;;5000837;28;20660;-71
2022/12/06 00:18:33;;;;;;;12.27;9.52;;;3.60;99.90;;;;;;5006367;28;20213;-71
2022/12/06 00:21:09;;;;;;;13.57;10.02;;;3.60;99.90;;;;;;5007261;28;20189;-71
2022/12/06 00:23:37;;;;;;;14.48;11.05;;;3.60;99.90;;;;;;5009843;28;20583;-70
2022/12/06 00:26:02;;;;;;;11.40;9.80;;;3.60;99.90;;;;;;5000985;28;20201;-70
2022/12/06 00:28:28;;;;;;;12.98;10.57;;;3.60;99.90;;;;;;5009626;28;20252;-70
2022/12/06 00:31:02;;;;;;;15.88;11.00;;;3.60;99.90;;;;;;5004772;28;20182;-71
2022/12/06 00:33:28;;;;;;;12.73;10.50;;;3.60;99.90;;;;;;5007696;28;20185;-73
2022/12/06 00:35:59;;;;;;;13.10;11.25;;;3.60;99.90;;;;;;5006009;28;20190;-72
2022/12/06 00:38:26;;;;;;;15.60;11.50;;;3.70;99.90;;;;;;4998228;28;20256;-71
2022/12/06 00:41:22;;;;;;;15.30;11.85;;;3.50;99.90;;;;;;4998617;28;20178;-71
2022/12/06 00:43:48;;;;;;;12.70;11.05;;;3.60;99.90;;;;;;4983650;28;20184;-71
2022/12/06 00:46:26;;;;;;;14.45;11.57;;;3.50;99.90;;;;;;4995775;28;20190;-71
2022/12/06 00:48:52;;;;;;;13.30;11.90;;;3.50;99.90;;;;;;4996671;28;20201;-71
2022/12/06 00:51:19;;;;;;;14.70;10.65;;;3.50;99.90;;;;;;4995821;28;20703;-71
2022/12/06 00:53:46;;;;;;;14.52;10.68;;;3.50;99.90;;;;;;4999791;28;20614;-71
2022/12/06 00:56:12;;;;;;;15.27;11.55;;;3.50;99.90;;;;;;4996430;28;20195;-71
2022/12/06 00:58:38;;;;;;;15.07;11.40;;;3.50;99.90;;;;;;5003964;28;20675;-71
2022/12/06 01:01:16;;;;;;;15.27;12.50;;;3.50;99.90;;;;;;5010606;28;20185;-71
2022/12/06 01:03:43;;;;;;;16.13;12.63;;;3.50;99.90;;;;;;5009355;28;20251;-71
2022/12/06 01:06:12;;;;;;;15.35;12.35;;;3.50;99.90;;;;;;5011578;28;20267;-71
2022/12/06 01:08:39;;;;;;;13.93;12.07;;;3.50;99.90;;;;;;5014442;28;20209;-71
2022/12/06 01:11:05;;;;;;;12.48;11.15;;;3.60;99.90;;;;;;5008676;28;20217;-72
2022/12/06 01:13:31;;;;;;;13.70;11.18;;;3.60;99.90;;;;;;5012926;28;20656;-72
2022/12/06 01:16:02;;;;;;;13.32;10.98;;;3.60;99.90;;;;;;5012791;28;20261;-72
2022/12/06 01:18:28;;;;;;;14.30;11.35;;;3.60;99.90;;;;;;5007293;28;20205;-72
2022/12/06 01:20:53;;;;;;;14.80;11.45;;;3.60;99.90;;;;;;5010359;28;20186;-72
2022/12/06 01:23:19;;;;;;;16.20;12.18;;;3.70;99.90;;;;;;5010568;28;20193;-71
2022/12/06 01:25:52;;;;;;;14.20;11.65;;;3.80;99.90;;;;;;5008676;28;20204;-71
2022/12/06 01:28:17;;;;;;;16.05;12.60;;;3.70;99.90;;;;;;5006564;28;20639;-71
2022/12/06 01:30:43;;;;;;;18.20;13.05;;;3.80;99.90;;;;;;5008245;28;20212;-70
2022/12/06 01:33:08;;;;;;;16.55;12.93;;;3.80;99.90;;;;;;5003091;28;20723;-70
2022/12/06 01:35:41;;;;;;;18.95;13.07;;;3.80;99.90;;;;;;5000643;28;20193;-71
2022/12/06 01:38:08;;;;;;;15.02;12.93;;;3.70;99.90;;;;;;5001928;28;20557;-71
2022/12/06 01:40:43;;;;;;;14.98;12.85;;;3.70;99.90;;;;;;5012589;28;20256;-70
2022/12/06 01:43:48;;;;;;;13.40;10.45;;;3.70;99.90;;;;;;5011716;28;20216;-71
2022/12/06 01:46:20;;;;;;;16.83;12.55;;;3.70;99.90;;;;;;4968150;28;20254;-71
2022/12/06 01:49:11;;;;;;;17.77;12.88;;;3.80;99.90;;;;;;4968932;28;20214;-71
2022/12/06 01:52:04;;;;;;;18.40;12.93;;;3.70;99.90;;;;;;4973685;28;20196;-71
2022/12/06 01:54:31;;;;;;;15.27;11.73;;;3.60;99.90;;;;;;5005433;28;20229;-71
2022/12/06 01:56:59;;;;;;;16.55;12.93;;;3.50;99.90;;;;;;5010433;28;20205;-71
2022/12/06 01:59:25;;;;;;;15.98;11.85;;;3.60;99.90;;;;;;5001108;28;20189;-70
2022/12/06 02:01:51;;;;;;;15.85;11.65;;;3.70;99.90;;;;;;5009583;28;20260;-70
2022/12/06 02:04:18;;;;;;;17.35;13.65;;;3.70;99.90;;;;;;5009990;28;20613;-71
2022/12/06 02:06:45;;;;;;;16.98;13.65;;;3.70;99.90;;;;;;5010271;28;20211;-70
2022/12/06 02:09:12;;;;;;;18.83;14.40;;;3.70;99.90;;;;;;5003257;28;20217;-71
2022/12/06 02:11:38;;;;;;;17.45;13.68;;;3.70;99.90;;;;;;5007424;28;20185;-70
2022/12/06 02:14:08;;;;;;;18.00;13.38;;;3.70;99.90;;;;;;5013061;28;20173;-70
2022/12/06 02:17:11;;;;;;;20.88;14.07;;;3.70;99.90;;;;;;5007618;28;20200;-70
2022/12/06 02:19:45;;;;;;;18.55;13.18;;;3.60;99.90;;;;;;5005369;28;20197;-71
2022/12/06 02:22:26;;;;;;;17.67;13.27;;;3.60;99.90;;;;;;5017933;28;20263;-71
2022/12/06 02:25:29;;;;;;;17.42;13.07;;;3.70;99.90;;;;;;5006098;28;20177;-71
2022/12/06 02:28:16;;;;;;;20.98;13.32;;;3.70;99.90;;;;;;5006465;28;20504;-71
2022/12/06 02:31:10;;;;;;;17.13;12.65;;;3.70;99.90;;;;;;5010916;28;20199;-70
2022/12/06 02:33:48;;;;;;;15.73;13.07;;;3.70;99.90;;;;;;5009161;28;20252;-71
2022/12/06 02:36:36;;;;;;;18.55;12.73;;;3.60;99.90;;;;;;5010834;28;20195;-71
2022/12/06 02:39:11;;;;;;;19.42;14.00;;;3.60;99.90;;;;;;5007025;28;20696;-71
2022/12/06 02:41:48;;;;;;;20.52;14.88;;;3.50;99.90;;;;;;5008799;28;20666;-71
2022/12/06 02:44:24;;;;;;;20.52;14.38;;;3.60;99.90;;;;;;5003141;28;20180;-71
2022/12/06 02:46:51;;;;;;;18.25;13.02;;;3.60;99.90;;;;;;5005413;28;20611;-71
2022/12/06 02:49:18;;;;;;;18.83;14.20;;;3.70;99.90;;;;;;5002970;28;20202;-71
2022/12/06 02:51:46;;;;;;;19.23;12.75;;;3.70;99.90;;;;;;5004145;28;20184;-71
2022/12/06 02:54:12;;;;;;;17.42;13.48;;;3.70;99.90;;;;;;5001252;28;20197;-71
2022/12/06 02:56:38;;;;;;;18.10;13.73;;;3.60;99.90;;;;;;5001519;28;20174;-71
2022/12/06 02:59:04;;;;;;;18.10;12.95;;;3.60;99.90;;;;;;5004355;28;20181;-71
2022/12/06 03:01:32;;;;;;;17.85;13.90;;;3.70;99.90;;;;;;5004628;28;20190;-71
2022/12/06 03:04:17;;;;;;;18.08;12.75;;;3.70;99.90;;;;;;5003012;28;20185;-71
2022/12/06 03:07:01;;;;;;;20.05;14.18;;;3.60;99.90;;;;;;5004526;28;20181;-71
2022/12/06 03:09:35;;;;;;;19.25;14.02;;;3.50;99.90;;;;;;5004047;28;20212;-71
2022/12/06 03:12:07;;;;;;;17.30;13.13;;;3.50;99.90;;;;;;5006533;28;20172;-71
2022/12/06 03:14:57;;;;;;;18.63;13.80;;;3.60;99.90;;;;;;5009198;28;20177;-71
2022/12/06 03:17:40;;;;;;;16.92;12.68;;;3.70;99.90;;;;;;5003190;28;20612;-71
2022/12/06 03:20:32;;;;;;;18.90;14.00;;;3.60;99.90;;;;;;5003624;28;20173;-70
2022/12/06 03:23:03;;;;;;;15.75;12.38;;;3.60;99.90;;;;;;5003203;28;20174;-70
2022/12/06 03:25:30;;;;;;;16.23;12.15;;;3.60;99.90;;;;;;5009210;28;20178;-70
2022/12/06 03:27:57;;;;;;;16.30;12.38;;;3.50;99.90;;;;;;5009243;28;20203;-70
2022/12/06 03:30:23;;;;;;;18.00;13.07;;;3.50;99.90;;;;;;5011868;28;20188;-70
2022/12/06 03:32:50;;;;;;;18.10;12.60;;;3.60;99.90;;;;;;5006619;28;20425;-70
2022/12/06 03:35:24;;;;;;;16.40;13.15;;;3.50;99.90;;;;;;5006132;28;20178;-70
2022/12/06 03:37:57;;;;;;;19.20;14.00;;;3.50;99.90;;;;;;4999820;28;20200;-70
2022/12/06 03:40:28;;;;;;;16.55;12.95;;;3.50;99.90;;;;;;5004708;28;20231;-70
2022/12/06 03:42:55;;;;;;;17.65;13.20;;;3.50;99.90;;;;;;5007019;28;20177;-71
2022/12/06 03:45:25;;;;;;;20.23;13.23;;;3.60;99.90;;;;;;5009073;28;20437;-71
2022/12/06 03:48:11;;;;;;;16.45;13.43;;;3.60;99.90;;;;;;5006067;28;20743;-71
2022/12/06 03:50:49;;;;;;;18.38;13.77;;;3.70;99.90;;;;;;5003556;28;20227;-71
2022/12/06 03:53:17;;;;;;;17.60;13.68;;;3.70;99.90;;;;;;5009117;28;20182;-71
2022/12/06 03:55:43;;;;;;;16.05;13.00;;;3.70;99.90;;;;;;5001891;28;20189;-71
2022/12/06 03:58:09;;;;;;;15.70;12.93;;;3.60;99.90;;;;;;5010935;28;20216;-71
2022/12/06 04:00:34;;;;;;;16.38;12.80;;;3.50;99.90;;;;;;5009945;28;20177;-71
2022/12/06 04:03:00;;;;;;;15.77;11.80;;;3.50;99.90;;;;;;5003622;28;20552;-71
2022/12/06 04:05:26;;;;;;;14.93;12.20;;;3.50;99.90;;;;;;5005543;28;20176;-71
2022/12/06 04:07:51;;;;;;;14.90;12.10;;;3.50;99.90;;;;;;5008186;28;20632;-71
2022/12/06 04:10:17;;;;;;;16.02;12.57;;;3.50;99.90;;;;;;5006515;28;20173;-71
2022/12/06 04:13:00;;;;;;;17.65;12.90;;;3.50;99.90;;;;;;4999280;28;20173;-71
2022/12/06 04:15:32;;;;;;;16.25;11.85;;;3.60;99.90;;;;;;5008577;28;20185;-71
2022/12/06 04:18:12;;;;;;;17.33;13.00;;;3.60;99.90;;;;;;5005391;28;20197;-71
2022/12/06 04:23:34;;;;;;;15.38;11.98;;;3.60;99.90;;;;;;5002932;28;20188;-71
2022/12/06 04:26:00;;;;;;;16.98;12.70;;;3.60;99.90;;;;;;4997452;28;20173;-72
2022/12/06 04:39:23;;;;;;;15.10;12.57;;;3.50;99.90;;;;;;5006676;28;20231;-72
2022/12/06 04:44:33;;;;;;;15.95;12.65;;;3.50;99.90;;;;;;5009620;28;20189;-72
2022/12/06 04:46:59;;;;;;;14.48;11.25;;;3.50;99.90;;;;;;5007459;28;20577;-71
2022/12/06 04:49:25;;;;;;;12.10;9.77;;;3.50;99.90;;;;;;5003929;28;20215;-72
2022/12/06 04:51:52;;;;;;;14.85;11.10;;;3.50;99.90;;;;;;5012851;28;20173;-71
2022/12/06 04:54:18;;;;;;;14.13;11.90;;;3.50;99.90;;;;;;5007044;28;20209;-72
2022/12/06 04:56:44;;;;;;;15.05;12.50;;;3.50;99.90;;;;;;5007949;28;20202;-71
2022/12/06 04:59:09;;;;;;;17.83;13.25;;;3.50;99.90;;;;;;5011430;28;20563;-72
2022/12/06 05:01:35;;;;;;;14.85;11.88;;;3.40;99.90;;;;;;5006284;28;20186;-72
2022/12/06 05:04:00;;;;;;;16.35;12.45;;;3.40;99.90;;;;;;5003368;28;20205;-72
2022/12/06 05:06:26;;;;;;;16.48;13.10;;;3.40;99.90;;;;;;5010508;28;20182;-71
2022/12/06 05:08:52;;;;;;;13.77;12.10;;;3.40;99.90;;;;;;5003446;28;20201;-71
2022/12/06 05:11:17;;;;;;;13.68;12.07;;;3.30;99.90;;;;;;5002698;28;20233;-71
2022/12/06 05:13:43;;;;;;;14.93;10.98;;;3.20;99.90;;;;;;5012180;28;20172;-71
2022/12/06 05:16:08;;;;;;;16.92;12.55;;;3.40;99.90;;;;;;5006532;28;20193;-71
2022/12/06 05:18:34;;;;;;;13.35;11.02;;;3.40;99.90;;;;;;5008110;28;20276;-71
2022/12/06 05:21:09;;;;;;;15.70;11.65;;;3.50;99.90;;;;;;5006573;28;20351;-72
2022/12/06 05:23:35;;;;;;;16.70;11.88;;;3.40;99.90;;;;;;5006943;28;20698;-72
2022/12/06 05:26:04;;;;;;;13.60;10.18;;;3.60;99.90;;;;;;5008246;28;20233;-71
2022/12/06 05:28:31;;;;;;;13.40;10.43;;;3.50;99.90;;;;;;5005170;28;20209;-72
2022/12/06 05:30:57;;;;;;;11.70;10.30;;;3.50;99.90;;;;;;5002945;28;20206;-72
2022/12/06 05:33:23;;;;;;;11.57;10.18;;;3.40;99.90;;;;;;5001626;28;20220;-72
2022/12/06 05:35:49;;;;;;;16.08;11.25;;;3.40;99.90;;;;;;5006068;28;20676;-71
2022/12/06 05:38:15;;;;;;;14.20;10.55;;;3.50;99.90;;;;;;5002567;28;20277;-71
2022/12/06 05:40:42;;;;;;;12.60;10.57;;;3.50;99.90;;;;;;5005317;28;20652;-71
2022/12/06 05:43:08;;;;;;;13.70;10.68;;;3.50;99.90;;;;;;5004424;28;20177;-71
2022/12/06 05:45:33;;;;;;;10.20;8.98;;;3.50;99.90;;;;;;5001856;28;20184;-71
2022/12/06 05:47:59;;;;;;;12.40;10.25;;;3.50;99.90;;;;;;4999412;28;20208;-71
2022/12/06 05:50:24;;;;;;;11.30;9.35;;;3.50;99.90;;;;;;4999844;28;20265;-71
2022/12/06 05:52:54;;;;;;;14.85;11.18;;;3.50;99.90;;;;;;5004359;28;20174;-71
2022/12/06 05:55:20;;;;;;;13.20;10.55;;;3.50;99.90;;;;;;5000786;28;20658;-71
2022/12/06 05:57:46;;;;;;;11.88;10.32;;;3.50;99.90;;;;;;5007811;28;20292;-71
2022/12/06 06:00:12;;;;;;;12.35;9.93;;;3.40;99.90;;;;;;5001433;28;20181;-71
2022/12/06 06:02:37;;;;;;;17.10;11.55;;;3.40;99.90;;;;;;5004009;28;20653;-72
2022/12/06 06:05:03;;;;;;;14.98;12.18;;;3.50;99.90;;;;;;5006523;28;20181;-72
2022/12/06 06:07:29;;;;;;;14.00;11.55;;;3.50;99.90;;;;;;5006691;28;22125;-72
2022/12/06 06:09:54;;;;;;;12.85;11.45;;;3.60;99.90;;;;;;5001604;28;20616;-72
2022/12/06 06:12:20;;;;;;;14.90;12.00;;;3.60;99.90;;;;;;5007394;28;20177;-71
2022/12/06 06:14:46;;;;;;;15.80;12.18;;;3.60;99.90;;;;;;5007454;28;20187;-71
2022/12/06 06:17:12;;;;;;;14.93;12.30;;;3.70;99.90;;;;;;5002295;28;20201;-72
2022/12/06 06:19:38;;;;;;;15.30;11.45;;;3.70;99.90;;;;;;5000001;28;20189;-72
2022/12/06 06:22:04;;;;;;;17.40;13.50;;;3.70;99.90;;;;;;4996654;28;20210;-72
2022/12/06 06:24:40;;;;;;;15.75;12.18;;;3.70;99.90;;;;;;5000241;28;20198;-71
2022/12/06 06:27:06;;;;;;;14.18;12.68;;;3.60;99.90;;;;;;5001834;28;20219;-71
2022/12/06 06:29:31;;;;;;;17.33;13.13;;;3.60;99.90;;;;;;5001141;28;20661;-71
2022/12/06 06:31:57;;;;;;;16.90;12.90;;;3.70;99.90;;;;;;5006533;28;20182;-71
2022/12/06 06:34:24;;;;;;;16.83;12.50;;;3.70;99.90;;;;;;5001704;28;20217;-71
2022/12/06 06:36:50;;;;;;;21.23;14.50;;;3.70;99.90;;;;;;5003457;28;20219;-73
2022/12/06 06:39:15;;;;;;;18.52;13.75;;;3.70;99.90;;;;;;5000798;28;20800;-72
2022/12/06 06:41:41;;;;;;;18.58;12.52;;;3.70;99.90;;;;;;5008570;28;20189;-72
2022/12/06 06:44:07;;;;;;;20.63;15.43;;;3.80;99.90;;;;;;5006655;28;20216;-72
2022/12/06 06:46:32;;;;;;;19.48;14.32;;;3.70;99.90;;;;;;5002114;28;20550;-72
2022/12/06 06:48:58;;;;;;;16.90;14.07;;;3.70;99.90;;;;;;5003840;28;20215;-72
2022/12/06 06:51:23;;;;;;;20.05;13.98;;;3.70;99.90;;;;;;5005470;28;20185;-73
2022/12/06 06:53:49;;;;;;;18.23;13.57;;;3.80;99.90;;;;;;5003339;28;20542;-74
2022/12/06 06:56:14;;;;;;;18.95;15.02;;;3.80;99.90;;;;;;5001704;28;20192;-74
2022/12/06 06:58:40;;;;;;;17.52;14.77;;;3.90;99.90;;;;;;5005773;28;20688;-74
2022/12/06 07:01:07;;;;;;;18.60;14.90;;;3.90;99.90;;;;;;5006160;28;20212;-74
2022/12/06 07:03:33;;;;;;;18.23;14.75;;;3.80;99.90;;;;;;5003685;28;20272;-73
2022/12/06 07:06:05;;;;;;;17.70;14.18;;;3.90;99.90;;;;;;4999453;28;20189;-74
2022/12/06 07:08:31;;;;;;;18.38;15.23;;;4.00;99.90;;;;;;4998285;28;20621;-73
2022/12/06 07:10:57;;;;;;;19.80;15.10;;;3.90;99.90;;;;;;5000300;28;20192;-73
2022/12/06 07:13:24;;;;;;;19.77;14.38;;;3.80;99.90;;;;;;5002383;28;20264;-73
2022/12/06 07:15:51;;;;;;;16.45;14.07;;;3.80;99.90;;;;;;4998897;28;20217;-74
2022/12/06 07:18:17;;;;;;;21.60;18.50;;;3.80;99.90;;;;;;5001389;28;20210;-74
2022/12/06 07:20:44;;;;;;;18.63;16.25;;;3.90;99.90;;;;;;5000000;28;20181;-74
2022/12/06 07:23:10;;;;;;;18.67;15.02;;;4.00;99.90;;;;;;5004883;28;20182;-74
2022/12/06 07:25:35;;;;;;;17.17;14.27;;;4.00;99.90;;;;;;5005702;28;20227;-74
2022/12/06 07:28:01;;;;;;;19.63;16.00;;;4.10;99.90;;;;;;5001851;28;20197;-74
2022/12/06 07:30:27;;;;;;;22.08;16.75;;;4.10;99.90;;;;;;5002933;28;20189;-72
2022/12/06 07:32:53;;;;;;;20.50;16.73;;;4.20;99.90;;;;;;5007695;28;20694;-72
2022/12/06 07:35:19;;;;;;;22.33;18.45;;;4.10;99.90;;;;;;5007382;28;20174;-72
2022/12/06 07:37:45;;;;;;;20.42;17.42;;;4.00;99.90;;;;;;5001692;28;20233;-72
2022/12/06 07:40:13;;;;;;;20.33;17.67;;;4.00;99.90;;;;;;5003287;28;20217;-72
2022/12/06 07:45:22;;;;;;;21.27;16.88;;;4.10;99.90;;;;;;4998616;28;20268;-73
2022/12/06 07:47:48;;;;;;;22.27;18.63;;;4.20;99.90;;;;;;4997959;28;20260;-73
2022/12/06 07:50:17;;;;;;;21.25;17.40;;;4.30;99.90;;;;;;5001881;28;20293;-73
2022/12/06 07:52:44;;;;;;;14.68;12.48;;;4.20;99.90;;;;;;5001403;28;20192;-72
2022/12/06 07:55:11;;;;;;;22.80;16.45;;;4.20;99.90;;;;;;4998125;28;20327;-72
2022/12/06 07:57:37;;;;;;;20.15;16.30;;;4.30;99.90;;;;;;4999092;28;20207;-72
2022/12/06 08:00:04;;;;;;;19.52;17.48;;;4.40;99.90;;;;;;4997427;28;20213;-72
2022/12/06 08:02:30;;;;;;;24.67;18.55;;;4.40;99.90;;;;;;5005698;28;20682;-72
2022/12/06 08:04:57;;;;;;;22.60;17.48;;;4.40;99.90;;;;;;5000454;28;20182;-73
2022/12/06 08:07:23;;;;;;;21.48;17.30;;;4.30;99.90;;;;;;4995525;28;20240;-73
2022/12/06 08:09:50;;;;;;;19.60;15.60;;;4.30;99.90;;;;;;5001811;28;20271;-73
2022/12/06 08:12:16;;;;;;;21.77;18.05;;;4.40;99.90;;;;;;5012719;28;20529;-74
2022/12/06 08:14:42;;;;;;;20.20;16.90;;;4.50;99.90;;;;;;5007340;28;20266;-74
2022/12/06 08:17:07;;;;;;;21.35;17.13;;;4.40;99.90;;;;;;5008081;28;20205;-75
2022/12/06 08:19:33;;;;;;;18.48;15.55;;;4.50;99.90;;;;;;5004174;28;20602;-74
2022/12/06 08:21:59;;;;;;;19.65;13.85;;;4.60;99.90;;;;;;5000996;28;20263;-73
2022/12/06 08:24:25;;;;;;;20.65;15.95;;;4.70;99.90;;;;;;5008837;28;20185;-74
2022/12/06 08:26:51;;;;;;;21.02;15.27;;;4.80;99.90;;;;;;5001007;28;20209;-74
2022/12/06 08:29:17;;;;;;;19.50;15.90;;;4.70;99.90;;;;;;5002102;28;20293;-74
2022/12/06 08:31:44;;;;;;;19.17;13.85;;;4.70;99.90;;;;;;5003172;28;20264;-74
2022/12/06 08:34:10;;;;;;;19.23;15.60;;;4.70;99.90;;;;;;5000062;28;20331;-74
2022/12/06 08:36:37;;;;;;;21.08;15.00;;;4.80;99.90;;;;;;5022028;28;20177;-73
2022/12/06 08:39:03;;;;;;;20.15;17.55;;;4.80;99.90;;;;;;5004202;28;20324;-73
2022/12/06 08:44:14;;;;;;;20.50;16.05;;;5.00;99.90;;;;;;5011126;28;20200;-73
2022/12/06 08:46:40;;;;;;;21.88;17.02;;;5.00;99.90;;;;;;5009945;28;20269;-74
2022/12/06 08:49:06;;;;;;;19.92;14.48;;;5.10;99.90;;;;;;5006424;28;20301;-73
2022/12/06 08:51:33;;;;;;;20.20;16.65;;;5.20;99.90;;;;;;5006480;28;20178;-73
2022/12/06 08:53:59;;;;;;;15.48;13.13;;;5.30;99.90;;;;;;5002155;28;20182;-73
2022/12/06 08:56:25;;;;;;;20.42;16.10;;;5.20;99.90;;;;;;5007361;28;20225;-73
2022/12/06 08:58:52;;;;;;;18.95;15.90;;;5.20;99.90;;;;;;5007853;28;20211;-73
2022/12/06 09:01:21;;;;;;;19.30;15.38;;;5.20;99.90;;;;;;5008253;28;20264;-73
2022/12/06 09:03:46;;;;;;;19.48;16.08;;;5.10;99.90;;;;;;5002709;28;20187;-73
2022/12/06 09:06:12;;;;;;;18.38;14.57;;;5.10;99.90;;;;;;5005773;28;20265;-73
2022/12/06 09:08:38;;;;;;;18.08;14.73;;;5.10;99.90;;;;;;5007419;28;20208;-73
2022/12/06 09:11:05;;;;;;;18.17;15.07;;;5.10;99.90;;;;;;5002755;28;20239;-73
2022/12/06 09:13:32;;;;;;;15.60;11.93;;;5.10;99.90;;;;;;5007395;28;20178;-73
2022/12/06 09:15:57;;;;;;;18.25;14.93;;;5.20;99.90;;;;;;5004719;28;20603;-73
2022/12/06 09:18:23;;;;;;;15.68;13.05;;;5.20;99.90;;;;;;5002762;28;20276;-73
2022/12/06 09:20:48;;;;;;;18.98;13.52;;;5.30;99.90;;;;;;5000897;28;20537;-73
2022/12/06 09:23:14;;;;;;;17.58;14.10;;;5.20;99.90;;;;;;4999812;28;20182;-73
2022/12/06 09:25:41;;;;;;;19.00;15.57;;;5.20;99.90;;;;;;5000751;28;20181;-73
2022/12/06 09:28:06;;;;;;;19.80;17.05;;;5.20;99.90;;;;;;5010182;28;20201;-73
2022/12/06 09:30:32;;;;;;;21.48;16.20;;;5.10;99.90;;;;;;5002367;28;20187;-72
2022/12/06 09:32:58;;;;;;;20.58;17.88;;;5.20;99.90;;;;;;5007282;28;20174;-73
2022/12/06 09:35:23;;;;;;;23.05;19.58;;;5.20;99.90;;;;;;5000765;28;20170;-73
2022/12/06 09:37:49;;;;;;;22.02;17.10;;;5.30;99.90;;;;;;5011991;28;20276;-73
2022/12/06 09:40:30;;;;;;;21.30;16.15;;;5.40;99.90;;;;;;5005791;28;20287;-73
2022/12/06 09:43:01;;;;;;;19.67;16.30;;;5.50;99.90;;;;;;5000203;28;20185;-73
2022/12/06 09:45:56;;;;;;;19.83;16.80;;;5.50;99.90;;;;;;5009906;28;20228;-73
2022/12/06 09:48:50;;;;;;;18.33;13.90;;;5.50;99.90;;;;;;4994538;28;20232;-73
2022/12/06 09:51:54;;;;;;;14.65;10.70;;;5.60;99.90;;;;;;5006598;28;20201;-73
2022/12/06 09:54:43;;;;;;;18.23;14.07;;;5.40;99.90;;;;;;4947899;28;20192;-73
2022/12/06 09:57:45;;;;;;;20.33;14.48;;;5.50;99.90;;;;;;5006151;28;20209;-73
2022/12/06 10:00:18;;;;;;;19.42;16.20;;;5.40;99.90;;;;;;5001582;28;20190;-73
2022/12/06 10:02:53;;;;;;;21.75;17.65;;;5.30;99.90;;;;;;5007915;28;20279;-73
2022/12/06 10:05:36;;;;;;;20.08;17.50;;;5.10;99.90;;;;;;5003017;28;20188;-73
2022/12/06 10:08:13;;;;;;;23.00;18.60;;;5.20;99.90;;;;;;5014088;28;20213;-73
2022/12/06 10:11:07;;;;;;;18.75;15.80;;;5.20;99.90;;;;;;5001830;28;20205;-73
2022/12/06 10:14:27;;;;;;;17.27;13.68;;;5.30;99.90;;;;;;5007424;28;20185;-73
2022/12/06 10:17:04;;;;;;;20.70;17.75;;;5.30;99.90;;;;;;4941658;28;20207;-73
2022/12/06 10:19:52;;;;;;;21.02;16.25;;;5.30;99.90;;;;;;5003943;28;20273;-73
2022/12/06 10:22:39;;;;;;;18.15;12.57;;;5.40;99.90;;;;;;4997705;28;20528;-73
2022/12/06 10:25:16;;;;;;;20.02;14.38;;;5.30;99.90;;;;;;5004216;28;20652;-73
2022/12/06 10:27:54;;;;;;;15.30;12.90;;;5.30;99.90;;;;;;5002034;28;20209;-73
2022/12/06 10:30:20;;;;;;;18.95;15.48;;;5.40;99.90;;;;;;5007023;28;20220;-73
2022/12/06 10:32:48;;;;;;;16.08;11.88;;;5.40;99.90;;;;;;5009844;28;20173;-73
2022/12/06 10:35:14;;;;;;;19.92;15.35;;;5.50;99.90;;;;;;5004926;28;20205;-73
2022/12/06 10:37:56;;;;;;;12.85;10.48;;;5.50;99.90;;;;;;5004571;28;20229;-73
2022/12/06 10:40:56;;;;;;;18.02;15.60;;;5.40;99.90;;;;;;5001841;28;20182;-73
2022/12/06 10:44:00;;;;;;;17.58;14.65;;;5.40;99.90;;;;;;4996647;28;20222;-73
2022/12/06 10:49:34;;;;;;;17.70;15.20;;;5.20;99.90;;;;;;4997623;28;20718;-73
2022/12/06 10:52:09;;;;;;;18.55;15.80;;;5.30;99.90;;;;;;5001765;28;20178;-73
2022/12/06 10:54:44;;;;;;;18.33;15.13;;;5.50;99.90;;;;;;5002557;28;20252;-76
2022/12/06 10:57:18;;;;;;;13.88;11.35;;;5.50;99.90;;;;;;5008673;28;20215;-74
2022/12/06 10:59:56;;;;;;;17.67;15.88;;;5.70;99.90;;;;;;5002124;28;20201;-73
2022/12/06 11:02:32;;;;;;;17.70;14.65;;;5.80;99.90;;;;;;5002584;28;20177;-72
2022/12/06 11:05:05;;;;;;;17.88;11.98;;;5.90;99.90;;;;;;4996516;28;20236;-72
2022/12/06 11:07:38;;;;;;;16.70;12.85;;;6.00;99.90;;;;;;4999346;28;20217;-72
2022/12/06 11:10:23;;;;;;;17.70;14.55;;;6.20;99.90;;;;;;4997631;28;20223;-72
2022/12/06 11:12:57;;;;;;;11.77;8.98;;;6.30;99.90;;;;;;5006789;28;20181;-71
2022/12/06 11:15:52;;;;;;;17.48;13.00;;;6.30;99.90;;;;;;5005162;28;20184;-71
2022/12/06 11:18:18;;;;;;;14.35;10.35;;;6.30;99.90;;;;;;4979822;28;20213;-71
2022/12/06 11:21:11;;;;;;;13.55;11.48;;;6.30;99.90;;;;;;4996800;28;20801;-71
2022/12/06 11:23:59;;;;;;;12.43;9.48;;;6.30;99.90;;;;;;4996394;28;20194;-71
2022/12/06 11:26:41;;;;;;;15.35;11.52;;;6.20;99.90;;;;;;4995047;28;20177;-71
2022/12/06 11:29:11;;;;;;;16.48;14.13;;;6.20;99.90;;;;;;4991630;28;20202;-71
2022/12/06 11:31:39;;;;;;;14.73;13.23;;;6.20;99.90;;;;;;4995872;28;20182;-72
2022/12/06 11:34:13;;;;;;;14.90;13.35;;;6.30;99.90;;;;;;4991511;28;20185;-71
2022/12/06 11:36:39;;;;;;;14.63;13.02;;;6.40;99.90;;;;;;4996946;28;20658;-71
2022/12/06 11:39:05;;;;;;;15.35;12.70;;;6.50;99.90;;;;;;4996419;28;20264;-71
2022/12/06 11:41:35;;;;;;;13.38;11.70;;;6.70;99.90;;;;;;4992685;28;20182;-71
2022/12/06 11:44:01;;;;;;;9.00;8.10;;;6.90;99.90;;;;;;4993485;28;20189;-71
2022/12/06 11:46:27;;;;;;;11.68;10.35;;;7.00;99.90;;;;;;4997127;28;20185;-71
2022/12/06 11:48:59;;;;;;;15.63;12.55;;;7.10;99.90;;;;;;4997923;28;20285;-71
2022/12/06 11:51:24;;;;;;;12.82;11.50;;;7.30;99.90;;;;;;4996564;28;20174;-71
2022/12/06 11:54:01;;;;;;;11.68;10.48;;;7.40;99.90;;;;;;4996663;28;20200;-71
2022/12/06 11:56:45;;;;;;;10.13;9.13;;;7.60;99.90;;;;;;4998321;28;20283;-71
2022/12/06 11:59:24;;;;;;;11.48;10.27;;;7.70;99.90;;;;;;4998103;28;20220;-71
2022/12/06 12:01:53;;;;;;;11.88;10.70;;;7.70;99.90;;;;;;5000399;28;20176;-71
2022/12/06 12:04:40;;;;;;;11.65;10.30;;;7.50;99.90;;;;;;4995187;28;20186;-72
2022/12/06 12:07:09;;;;;;;9.82;8.35;;;7.40;99.90;;;;;;4996821;28;20208;-71
2022/12/06 12:09:49;;;;;;;8.73;7.22;;;7.30;99.90;;;;;;4995502;28;20201;-71
2022/12/06 12:12:18;;;;;;;9.82;8.82;;;7.20;99.90;;;;;;4995891;28;20247;-71
2022/12/06 12:14:53;;;;;;;10.32;9.25;;;7.10;99.90;;;;;;4995939;28;20214;-71
2022/12/06 12:17:22;;;;;;;8.43;7.60;;;7.10;99.90;;;;;;4996186;28;20817;-72
2022/12/06 12:20:04;;;;;;;9.20;8.30;;;7.10;99.90;;;;;;5001745;28;20184;-72
2022/12/06 12:22:39;;;;;;;8.43;6.43;;;7.10;99.90;;;;;;5006616;28;20192;-71
2022/12/06 12:25:28;;;;;;;8.73;7.82;;;7.10;99.90;;;;;;4998071;28;20181;-72
2022/12/06 12:27:58;;;;;;;10.10;7.38;;;7.00;99.90;;;;;;4997249;28;20503;-71
2022/12/06 12:30:36;;;;;;;10.23;8.40;;;7.00;99.90;;;;;;4998523;28;21151;-71
2022/12/06 12:33:05;;;;;;;13.43;8.95;;;6.80;99.90;;;;;;5004547;28;20208;-71
2022/12/06 12:35:33;;;;;;;6.03;5.50;;;6.50;99.90;;;;;;4998803;28;20216;-71
2022/12/06 12:38:03;;;;;;;10.57;8.43;;;6.50;99.90;;;;;;4998250;28;20297;-71
2022/12/06 12:40:32;;;;;;;9.52;8.40;;;6.30;99.90;;;;;;4995439;28;20182;-71
2022/12/06 12:43:02;;;;;;;9.40;7.97;;;6.20;99.90;;;;;;4997109;28;20182;-71
2022/12/06 12:45:28;;;;;;;8.45;7.43;;;6.20;99.90;;;;;;4997208;28;20186;-71
2022/12/06 12:47:56;;;;;;;8.52;7.72;;;6.10;99.90;;;;;;5001688;28;20247;-71
2022/12/06 12:50:22;;;;;;;8.70;7.75;;;6.00;99.90;;;;;;5000893;28;20544;-71
2022/12/06 12:52:49;;;;;;;9.02;8.10;;;6.00;99.90;;;;;;4997978;28;20177;-71
2022/12/06 12:55:20;;;;;;;8.65;7.47;;;6.20;99.90;;;;;;4998012;28;20174;-71
2022/12/06 12:57:48;;;;;;;9.73;8.25;;;6.30;99.90;;;;;;5002598;28;20201;-71
2022/12/06 13:00:15;;;;;;;7.55;6.78;;;6.30;99.90;;;;;;5005343;28;20178;-71
2022/12/06 13:02:42;;;;;;;8.00;7.13;;;6.40;99.90;;;;;;5006348;28;20177;-71
2022/12/06 13:05:25;;;;;;;7.35;6.57;;;6.30;99.90;;;;;;4999543;28;20174;-71
2022/12/06 13:07:54;;;;;;;8.43;7.00;;;6.30;99.90;;;;;;4997904;28;20558;-71
2022/12/06 13:10:34;;;;;;;9.35;8.35;;;6.20;99.90;;;;;;5002357;28;20260;-71
2022/12/06 13:13:17;;;;;;;10.27;9.05;;;6.30;99.90;;;;;;5010677;28;20181;-71
2022/12/06 13:15:52;;;;;;;8.95;8.02;;;6.30;99.90;;;;;;5007529;28;20174;-72
2022/12/06 13:18:39;;;;;;;10.18;9.10;;;6.30;99.90;;;;;;5002938;28;20193;-72
2022/12/06 13:21:35;;;;;;;10.32;9.05;;;6.30;99.90;;;;;;5011083;28;20185;-72
2022/12/06 13:24:12;;;;;;;9.82;8.77;;;6.40;99.90;;;;;;4992549;28;20240;-72